Time,TemperatureF,DewpointF,PressureIn,WindDirection,WindDirectionDegrees,WindSpeedMPH,WindSpeedGustMPH,Humidity,HourlyPrecipIn,Conditions,Clouds,dailyrainin,SoftwareType,DateUTC
2013-09-24 00:01:00,78.1,76.0,29.78,ESE,106,4.0,5.0,92,0.00,,,0.00,weatherlink.com 1.10,2013-09-24 05:01:00,
2013-09-24 00:16:00,77.9,76.0,29.78,East,98,1.0,4.0,92,0.00,,,0.00,weatherlink.com 1.10,2013-09-24 05:16:00,
2013-09-24 00:32:00,77.6,76.0,29.78,ESE,123,2.0,4.0,93,0.00,,,0.00,weatherlink.com 1.10,2013-09-24 05:32:00,
2013-09-24 00:47:00,77.4,75.0,29.79,ESE,108,1.0,4.0,93,0.00,,,0.00,weatherlink.com 1.10,2013-09-24 05:47:00,
2013-09-24 01:02:00,77.2,75.0,29.78,ESE,102,2.0,5.0,93,0.00,,,0.00,weatherlink.com 1.10,2013-09-24 06:02:00,
2013-09-24 01:17:00,77.0,75.0,29.78,East,91,3.0,3.0,94,0.00,,,0.00,weatherlink.com 1.10,2013-09-24 06:17:00,
2013-09-24 01:32:00,76.9,75.0,29.78,East,94,2.0,4.0,94,0.00,,,0.00,weatherlink.com 1.10,2013-09-24 06:32:00,
2013-09-24 01:47:00,76.8,75.0,29.79,East,84,1.0,3.0,94,0.00,,,0.00,weatherlink.com 1.10,2013-09-24 06:47:00,
2013-09-24 02:02:00,76.6,75.0,29.79,East,96,4.0,4.0,95,0.00,,,0.00,weatherlink.com 1.10,2013-09-24 07:02:00,
2013-09-24 02:17:00,76.6,75.0,29.78,East,86,3.0,3.0,95,0.00,,,0.00,weatherlink.com 1.10,2013-09-24 07:17:00,
2013-09-24 02:32:00,76.6,75.0,29.78,ESE,104,2.0,4.0,95,0.00,,,0.00,weatherlink.com 1.10,2013-09-24 07:32:00,
2013-09-24 02:47:00,76.5,75.0,29.78,East,81,2.0,3.0,95,0.00,,,0.00,weatherlink.com 1.10,2013-09-24 07:47:00,
2013-09-24 03:02:00,76.5,75.0,29.77,East,81,1.0,3.0,95,0.00,,,0.00,weatherlink.com 1.10,2013-09-24 08:02:00,
2013-09-24 03:17:00,76.6,75.0,29.77,East,89,1.0,2.0,95,0.00,,,0.00,weatherlink.com 1.10,2013-09-24 08:17:00,
2013-09-24 03:32:00,76.5,75.0,29.77,East,98,1.0,3.0,95,0.00,,,0.00,weatherlink.com 1.10,2013-09-24 08:32:00,
2013-09-24 03:47:00,76.5,75.0,29.77,East,84,1.0,3.0,96,0.00,,,0.00,weatherlink.com 1.10,2013-09-24 08:47:00,
2013-09-24 04:02:00,76.5,75.0,29.77,East,82,2.0,2.0,96,0.00,,,0.00,weatherlink.com 1.10,2013-09-24 09:02:00,
2013-09-24 04:17:00,76.4,75.0,29.78,ESE,104,1.0,2.0,96,0.00,,,0.00,weatherlink.com 1.10,2013-09-24 09:17:00,
2013-09-24 04:32:00,76.4,75.0,29.77,East,96,0.0,2.0,96,0.00,,,0.00,weatherlink.com 1.10,2013-09-24 09:32:00,
2013-09-24 04:47:00,76.4,75.0,29.77,East,88,1.0,3.0,96,0.00,,,0.00,weatherlink.com 1.10,2013-09-24 09:47:00,
2013-09-24 05:02:00,76.5,75.0,29.78,East,101,1.0,3.0,96,0.00,,,0.00,weatherlink.com 1.10,2013-09-24 10:02:00,
2013-09-24 05:17:00,76.5,75.0,29.77,East,101,1.0,3.0,96,0.00,,,0.00,weatherlink.com 1.10,2013-09-24 10:17:00,
2013-09-24 05:32:00,76.4,75.0,29.77,East,98,0.0,2.0,96,0.00,,,0.00,weatherlink.com 1.10,2013-09-24 10:32:00,
2013-09-24 05:47:00,76.4,75.0,29.78,East,98,0.0,1.0,96,0.00,,,0.00,weatherlink.com 1.10,2013-09-24 10:47:00,
2013-09-24 06:03:00,76.0,75.0,29.78,East,98,0.0,0.0,96,0.00,,,0.00,weatherlink.com 1.10,2013-09-24 11:03:00,
2013-09-24 06:17:00,76.0,75.0,29.79,East,98,0.0,0.0,96,0.00,,,0.00,weatherlink.com 1.10,2013-09-24 11:17:00,
2013-09-24 06:32:00,75.9,75.0,29.79,East,98,0.0,0.0,96,0.00,,,0.00,weatherlink.com 1.10,2013-09-24 11:32:00,
2013-09-24 06:47:00,75.9,75.0,29.79,East,98,0.0,0.0,96,0.00,,,0.00,weatherlink.com 1.10,2013-09-24 11:47:00,
2013-09-24 07:02:00,76.1,75.0,29.79,East,98,0.0,0.0,96,0.00,,,0.00,weatherlink.com 1.10,2013-09-24 12:02:00,
2013-09-24 07:17:00,76.3,75.0,29.80,East,98,0.0,0.0,96,0.00,,,0.00,weatherlink.com 1.10,2013-09-24 12:17:00,
2013-09-24 07:32:00,76.7,76.0,29.80,East,98,0.0,0.0,96,0.00,,,0.00,weatherlink.com 1.10,2013-09-24 12:32:00,
2013-09-24 07:47:00,77.0,76.0,29.80,East,98,0.0,0.0,96,0.00,,,0.00,weatherlink.com 1.10,2013-09-24 12:47:00,
2013-09-24 08:02:00,77.1,76.0,29.80,East,98,0.0,1.0,96,0.00,,,0.00,weatherlink.com 1.10,2013-09-24 13:02:00,
2013-09-24 08:17:00,77.3,76.0,29.81,SSE,162,0.0,2.0,96,0.00,,,0.00,weatherlink.com 1.10,2013-09-24 13:17:00,
2013-09-24 08:32:00,77.4,76.0,29.81,ESE,110,0.0,1.0,96,0.00,,,0.00,weatherlink.com 1.10,2013-09-24 13:32:00,
2013-09-24 08:47:00,77.7,77.0,29.81,East,95,0.0,1.0,96,0.00,,,0.00,weatherlink.com 1.10,2013-09-24 13:47:00,
2013-09-24 09:02:00,78.3,77.0,29.82,East,95,0.0,1.0,96,0.00,,,0.00,weatherlink.com 1.10,2013-09-24 14:02:00,
2013-09-24 09:17:00,78.6,77.0,29.82,East,95,0.0,0.0,96,0.00,,,0.00,weatherlink.com 1.10,2013-09-24 14:17:00,
2013-09-24 09:32:00,79.1,78.0,29.83,SW,215,0.0,1.0,96,0.00,,,0.00,weatherlink.com 1.10,2013-09-24 14:32:00,
2013-09-24 09:47:00,80.1,79.0,29.82,WNW,290,0.0,3.0,96,0.00,,,0.00,weatherlink.com 1.10,2013-09-24 14:47:00,
2013-09-24 10:02:00,81.6,79.0,29.83,North,355,1.0,4.0,90,0.00,,,0.00,weatherlink.com 1.10,2013-09-24 15:02:00,
2013-09-24 10:17:00,83.6,79.0,29.83,NW,314,3.0,4.0,86,0.00,,,0.00,weatherlink.com 1.10,2013-09-24 15:17:00,
2013-09-24 10:33:00,83.2,77.0,29.82,NW,324,1.0,4.0,82,0.00,,,0.00,weatherlink.com 1.10,2013-09-24 15:33:00,
2013-09-24 10:48:00,83.9,77.0,29.83,WNW,297,3.0,6.0,80,0.00,,,0.00,weatherlink.com 1.10,2013-09-24 15:48:00,
2013-09-24 11:03:00,85.1,78.0,29.83,WNW,291,2.0,6.0,78,0.00,,,0.00,weatherlink.com 1.10,2013-09-24 16:03:00,
2013-09-24 11:18:00,86.1,78.0,29.82,WNW,288,4.0,5.0,76,0.00,,,0.00,weatherlink.com 1.10,2013-09-24 16:18:00,
2013-09-24 11:33:00,86.6,77.0,29.82,WNW,295,2.0,7.0,72,0.00,,,0.00,weatherlink.com 1.10,2013-09-24 16:33:00,
2013-09-24 11:48:00,87.0,76.0,29.81,NNW,336,3.0,6.0,69,0.00,,,0.00,weatherlink.com 1.10,2013-09-24 16:48:00,
2013-09-24 12:03:00,87.0,77.0,29.81,NW,314,0.0,4.0,73,0.00,,,0.00,weatherlink.com 1.10,2013-09-24 17:03:00,
2013-09-24 12:18:00,89.1,76.0,29.81,NW,305,1.0,6.0,65,0.00,,,0.00,weatherlink.com 1.10,2013-09-24 17:18:00,
2013-09-24 12:33:00,89.7,78.0,29.80,NW,309,5.0,7.0,68,0.00,,,0.00,weatherlink.com 1.10,2013-09-24 17:33:00,
2013-09-24 12:48:00,89.5,73.0,29.80,WNW,293,0.0,8.0,59,0.00,,,0.00,weatherlink.com 1.10,2013-09-24 17:48:00,
2013-09-24 13:03:00,89.6,77.0,29.79,NW,324,2.0,7.0,67,0.00,,,0.00,weatherlink.com 1.10,2013-09-24 18:03:00,
2013-09-24 13:18:00,90.4,78.0,29.79,NNW,345,3.0,7.0,66,0.00,,,0.00,weatherlink.com 1.10,2013-09-24 18:18:00,
2013-09-24 13:33:00,89.8,77.0,29.78,NW,307,3.0,9.0,65,0.00,,,0.00,weatherlink.com 1.10,2013-09-24 18:33:00,
2013-09-24 13:48:00,90.1,76.0,29.78,NW,309,4.0,5.0,64,0.00,,,0.00,weatherlink.com 1.10,2013-09-24 18:48:00,
2013-09-24 14:03:00,89.9,78.0,29.77,North,356,1.0,6.0,67,0.00,,,0.00,weatherlink.com 1.10,2013-09-24 19:03:00,
2013-09-24 14:18:00,89.7,76.0,29.77,NNE,33,0.0,5.0,65,0.00,,,0.00,weatherlink.com 1.10,2013-09-24 19:18:00,
2013-09-24 14:33:00,89.6,77.0,29.77,WNW,283,5.0,10.0,66,0.00,,,0.00,weatherlink.com 1.10,2013-09-24 19:33:00,
2013-09-24 14:48:00,89.2,78.0,29.76,NW,314,1.0,9.0,70,0.00,,,0.00,weatherlink.com 1.10,2013-09-24 19:48:00,
2013-09-24 15:18:00,90.4,78.0,29.76,North,360,4.0,12.0,67,0.00,,,0.00,weatherlink.com 1.10,2013-09-24 20:18:00,
2013-09-24 15:33:00,91.2,77.0,29.76,ENE,60,1.0,6.0,64,0.00,,,0.00,weatherlink.com 1.10,2013-09-24 20:33:00,
2013-09-24 15:48:00,90.9,78.0,29.76,NNW,347,1.0,6.0,65,0.00,,,0.00,weatherlink.com 1.10,2013-09-24 20:48:00,
2013-09-24 16:03:00,92.2,77.0,29.75,North,351,3.0,6.0,61,0.00,,,0.00,weatherlink.com 1.10,2013-09-24 21:03:00,
2013-09-24 16:18:00,90.6,77.0,29.75,WNW,300,1.0,6.0,65,0.00,,,0.00,weatherlink.com 1.10,2013-09-24 21:18:00,
2013-09-24 16:33:00,89.8,76.0,29.75,ENE,72,2.0,6.0,64,0.00,,,0.00,weatherlink.com 1.10,2013-09-24 21:33:00,
2013-09-24 16:48:00,89.5,76.0,29.75,NNE,15,1.0,5.0,64,0.00,,,0.00,weatherlink.com 1.10,2013-09-24 21:48:00,
2013-09-24 17:03:00,89.9,75.0,29.75,North,355,2.0,7.0,62,0.00,,,0.00,weatherlink.com 1.10,2013-09-24 22:03:00,
2013-09-24 17:18:00,89.8,74.0,29.75,NE,51,6.0,9.0,60,0.00,,,0.00,weatherlink.com 1.10,2013-09-24 22:18:00,
2013-09-24 17:33:00,88.8,75.0,29.75,NNE,18,1.0,4.0,64,0.00,,,0.00,weatherlink.com 1.10,2013-09-24 22:33:00,
2013-09-24 17:48:00,88.5,75.0,29.75,NE,47,1.0,10.0,64,0.00,,,0.00,weatherlink.com 1.10,2013-09-24 22:48:00,
2013-09-24 18:03:00,88.0,75.0,29.76,NE,51,1.0,8.0,65,0.00,,,0.00,weatherlink.com 1.10,2013-09-24 23:03:00,
2013-09-24 18:18:00,86.8,75.0,29.76,NE,40,6.0,9.0,68,0.00,,,0.00,weatherlink.com 1.10,2013-09-24 23:18:00,
2013-09-24 18:33:00,86.1,75.0,29.76,NE,39,1.0,6.0,70,0.00,,,0.00,weatherlink.com 1.10,2013-09-24 23:33:00,
2013-09-24 18:48:00,85.1,75.0,29.77,East,84,3.0,6.0,72,0.00,,,0.00,weatherlink.com 1.10,2013-09-24 23:48:00,
2013-09-24 19:03:00,84.4,75.0,29.77,ENE,74,2.0,5.0,73,0.00,,,0.00,weatherlink.com 1.10,2013-09-25 00:03:00,
2013-09-24 19:18:00,83.8,74.0,29.77,ENE,69,4.0,6.0,73,0.00,,,0.00,weatherlink.com 1.10,2013-09-25 00:18:00,
2013-09-24 19:33:00,83.2,74.0,29.78,ENE,77,0.0,3.0,74,0.00,,,0.00,weatherlink.com 1.10,2013-09-25 00:33:00,
2013-09-24 19:48:00,82.5,74.0,29.78,ENE,77,0.0,3.0,75,0.00,,,0.00,weatherlink.com 1.10,2013-09-25 00:48:00,
2013-09-24 20:03:00,81.8,74.0,29.78,East,79,1.0,1.0,77,0.00,,,0.00,weatherlink.com 1.10,2013-09-25 01:03:00,
2013-09-24 20:18:00,81.2,74.0,29.79,East,91,0.0,2.0,78,0.00,,,0.00,weatherlink.com 1.10,2013-09-25 01:18:00,
2013-09-24 20:33:00,80.8,73.0,29.79,ENE,64,0.0,1.0,78,0.00,,,0.00,weatherlink.com 1.10,2013-09-25 01:33:00,
2013-09-24 20:48:00,80.1,73.0,29.79,ENE,64,0.0,0.0,80,0.00,,,0.00,weatherlink.com 1.10,2013-09-25 01:48:00,
2013-09-24 21:03:00,79.3,73.0,29.80,ENE,64,0.0,0.0,82,0.00,,,0.00,weatherlink.com 1.10,2013-09-25 02:03:00,
2013-09-24 21:18:00,78.7,73.0,29.80,ENE,64,0.0,0.0,83,0.00,,,0.00,weatherlink.com 1.10,2013-09-25 02:18:00,
2013-09-24 21:33:00,78.0,73.0,29.80,ENE,64,0.0,0.0,85,0.00,,,0.00,weatherlink.com 1.10,2013-09-25 02:33:00,
2013-09-24 21:48:00,77.3,73.0,29.80,ENE,64,0.0,0.0,85,0.00,,,0.00,weatherlink.com 1.10,2013-09-25 02:48:00,
2013-09-24 22:03:00,76.6,73.0,29.81,ENE,64,0.0,0.0,87,0.00,,,0.00,weatherlink.com 1.10,2013-09-25 03:03:00,
2013-09-24 22:18:00,75.7,72.0,29.81,ENE,64,0.0,0.0,88,0.00,,,0.00,weatherlink.com 1.10,2013-09-25 03:18:00,
2013-09-24 22:34:00,74.6,72.0,29.81,ENE,64,0.0,0.0,90,0.00,,,0.00,weatherlink.com 1.10,2013-09-25 03:34:00,
2013-09-24 22:49:00,74.1,71.0,29.81,ENE,64,0.0,0.0,91,0.00,,,0.00,weatherlink.com 1.10,2013-09-25 03:49:00,
2013-09-24 23:04:00,73.5,71.0,29.81,ENE,64,0.0,0.0,92,0.00,,,0.00,weatherlink.com 1.10,2013-09-25 04:04:00,
2013-09-24 23:19:00,72.9,71.0,29.81,ENE,64,0.0,0.0,92,0.00,,,0.00,weatherlink.com 1.10,2013-09-25 04:19:00,
2013-09-24 23:34:00,72.4,70.0,29.81,ENE,64,0.0,0.0,93,0.00,,,0.00,weatherlink.com 1.10,2013-09-25 04:34:00,
2013-09-24 23:49:00,72.0,70.0,29.81,ENE,64,0.0,0.0,93,0.00,,,0.00,weatherlink.com 1.10,2013-09-25 04:49:00,